Time;durP1;ratioP1;P1;durP2;ratioP2;P2;SDS_P1;SDS_P2;PMS_P1;PMS_P2;Temp;Humidity;BMP_temperature;BMP_pressure;BME280_temperature;BME280_humidity;BME280_pressure;Samples;Min_cycle;Max_cycle;Signal;HPM_P1;HPM_P2
2023/10/01 00:00:43;;;;;;;0.43;0.30;;;;;;;18.42;54.96;95609.44;5114433;28;20473;-56
2023/10/01 00:03:11;;;;;;;0.50;0.30;;;;;;;18.50;54.60;95601.44;5114420;28;20667;-56
2023/10/01 00:05:41;;;;;;;0.70;0.70;;;;;;;17.96;56.40;95604.53;5114888;28;20439;-56
2023/10/01 00:08:12;;;;;;;0.40;0.30;;;;;;;18.18;55.35;95607.13;5114412;28;20974;-56
2023/10/01 00:10:42;;;;;;;0.40;0.27;;;;;;;18.26;55.48;95609.06;5113019;28;20522;-55
2023/10/01 00:13:15;;;;;;;0.50;0.30;;;;;;;18.29;55.13;95606.53;5114577;28;20443;-56
2023/10/01 00:15:43;;;;;;;0.50;0.37;;;;;;;18.30;55.31;95605.44;5113957;28;20446;-56
2023/10/01 00:18:14;;;;;;;0.60;0.30;;;;;;;18.42;54.69;95609.44;5114046;28;20445;-56
2023/10/01 00:20:42;;;;;;;0.40;0.30;;;;;;;18.08;55.37;95597.47;5088831;28;20469;-56
2023/10/01 00:23:11;;;;;;;0.50;0.30;;;;;;;17.75;56.93;95606.94;5113227;28;20450;-56
2023/10/01 00:25:41;;;;;;;0.50;0.40;;;;;;;17.61;57.25;95600.84;5114578;28;20436;-56
2023/10/01 00:28:10;;;;;;;0.50;0.30;;;;;;;17.71;57.68;95598.69;5114264;28;20439;-56
2023/10/01 00:30:41;;;;;;;0.70;0.70;;;;;;;17.90;57.77;95601.16;5113801;28;20496;-56
2023/10/01 00:33:11;;;;;;;0.40;0.30;;;;;;;18.14;56.52;95592.78;5114072;28;20496;-56
2023/10/01 00:35:40;;;;;;;0.70;0.40;;;;;;;18.07;56.38;95601.25;5113878;28;20475;-56
2023/10/01 00:38:10;;;;;;;0.50;0.30;;;;;;;17.87;56.77;95574.97;5113289;28;20805;-56
2023/10/01 00:40:39;;;;;;;0.70;0.60;;;;;;;17.85;57.48;95581.75;5113853;28;20479;-56
2023/10/01 00:43:07;;;;;;;0.40;0.30;;;;;;;17.52;57.57;95549.88;5113896;28;20471;-56
2023/10/01 00:45:36;;;;;;;0.50;0.30;;;;;;;17.67;56.42;95533.41;5113960;27;20947;-56
2023/10/01 00:48:11;;;;;;;0.47;0.40;;;;;;;18.00;56.51;95584.81;5112858;28;20435;-56
2023/10/01 00:50:39;;;;;;;0.40;0.30;;;;;;;17.97;56.31;95569.34;5114043;28;20522;-56
2023/10/01 00:53:10;;;;;;;0.50;0.33;;;;;;;17.73;56.68;95585.78;5113970;28;20439;-56
2023/10/01 00:55:39;;;;;;;0.90;0.40;;;;;;;17.79;56.31;95589.13;5113628;28;20462;-56
2023/10/01 00:58:10;;;;;;;0.40;0.30;;;;;;;17.44;57.33;95585.41;5111373;28;20431;-56
2023/10/01 01:00:42;;;;;;;0.50;0.30;;;;;;;17.32;58.49;95598.59;5113528;28;20473;-56
2023/10/01 01:03:19;;;;;;;0.50;0.40;;;;;;;17.62;57.18;95589.03;5113670;28;20994;-56
2023/10/01 01:05:57;;;;;;;0.50;0.30;;;;;;;17.60;58.15;95591.22;5099927;28;20481;-56
2023/10/01 01:08:33;;;;;;;0.47;0.30;;;;;;;17.40;57.75;95560.34;5113520;28;20463;-56
2023/10/01 01:11:03;;;;;;;1.80;1.70;;;;;;;17.67;58.10;95591.56;5113565;28;20530;-56
2023/10/01 01:13:33;;;;;;;0.80;0.80;;;;;;;17.61;57.18;95593.59;5113097;28;20516;-56
2023/10/01 01:16:05;;;;;;;0.40;0.30;;;;;;;17.10;56.96;95540.41;5113672;28;20435;-56
2023/10/01 01:18:36;;;;;;;1.37;0.30;;;;;;;17.68;57.10;95590.50;5113129;28;20439;-56
2023/10/01 01:21:10;;;;;;;0.40;0.30;;;;;;;17.55;58.03;95584.13;5113104;28;20438;-56
2023/10/01 01:23:41;;;;;;;0.53;0.50;;;;;;;17.03;59.20;95593.63;5112751;28;20479;-56
2023/10/01 01:26:13;;;;;;;1.73;0.60;;;;;;;16.59;60.39;95582.84;5112696;27;20492;-56
2023/10/01 01:28:42;;;;;;;2.00;0.93;;;;;;;16.41;61.33;95594.41;5112531;28;20864;-56
2023/10/01 01:31:11;;;;;;;0.40;0.30;;;;;;;16.73;60.51;95594.28;5113072;28;20432;-56
2023/10/01 01:33:52;;;;;;;0.50;0.40;;;;;;;16.61;60.61;95594.03;5112850;28;20496;-56
2023/10/01 01:36:21;;;;;;;0.60;0.60;;;;;;;16.78;59.72;95596.88;5112321;28;20493;-56
2023/10/01 01:39:25;;;;;;;1.90;0.50;;;;;;;17.29;58.74;95601.84;5112257;28;20458;-56
2023/10/01 01:41:55;;;;;;;0.50;0.40;;;;;;;17.23;59.63;95592.34;5112742;28;20475;-56
2023/10/01 01:44:25;;;;;;;0.50;0.30;;;;;;;17.20;58.44;95594.84;5112355;28;20447;-56
2023/10/01 01:47:00;;;;;;;0.50;0.30;;;;;;;17.27;58.66;95601.38;5103544;28;20437;-56
2023/10/01 01:49:29;;;;;;;0.50;0.30;;;;;;;17.24;59.19;95603.88;5109890;28;20435;-56
2023/10/01 01:51:59;;;;;;;0.50;0.40;;;;;;;17.07;59.83;95601.84;5112823;28;20447;-56
2023/10/01 01:54:32;;;;;;;0.50;0.30;;;;;;;17.13;59.66;95587.22;5112216;28;21007;-56
2023/10/01 01:57:00;;;;;;;0.50;0.30;;;;;;;17.40;58.51;95605.09;5112365;28;20435;-56
2023/10/01 01:59:31;;;;;;;0.40;0.20;;;;;;;17.64;58.27;95603.72;5111596;28;20442;-56
2023/10/01 02:02:00;;;;;;;0.40;0.30;;;;;;;17.82;58.00;95601.13;5112001;28;20829;-56
2023/10/01 02:04:30;;;;;;;0.43;0.27;;;;;;;17.45;59.24;95600.41;5112059;28;20439;-56
2023/10/01 02:06:59;;;;;;;0.57;0.40;;;;;;;17.57;58.52;95603.34;5112247;28;20442;-56
2023/10/01 02:09:27;;;;;;;1.07;0.30;;;;;;;17.71;58.74;95601.38;5112876;28;20509;-56
2023/10/01 02:11:57;;;;;;;0.40;0.30;;;;;;;17.51;58.11;95552.81;5111147;28;20435;-56
2023/10/01 02:14:35;;;;;;;0.60;0.40;;;;;;;17.81;59.15;95591.50;5111744;28;20446;-56
2023/10/01 02:17:13;;;;;;;23.57;0.73;;;;;;;17.73;59.40;95599.19;5111239;28;20443;-55
2023/10/01 02:19:46;;;;;;;0.40;0.30;;;;;;;17.67;58.23;95552.16;5111963;28;20606;-56
2023/10/01 02:22:16;;;;;;;0.40;0.30;;;;;;;17.94;57.97;95593.28;5111149;28;20562;-56
2023/10/01 02:24:54;;;;;;;1.17;0.30;;;;;;;17.99;57.22;95590.47;5111113;28;20443;-56
2023/10/01 02:27:26;;;;;;;0.40;0.30;;;;;;;17.36;58.09;95527.19;5111883;28;20431;-56
2023/10/01 02:30:13;;;;;;;0.57;0.50;;;;;;;17.59;58.64;95586.94;5111659;28;20821;-56
2023/10/01 02:33:15;;;;;;;0.80;0.40;;;;;;;17.20;60.16;95595.66;5112197;28;21166;-56
2023/10/01 02:35:41;;;;;;;0.60;0.47;;;;;;;16.67;60.15;95515.19;5111648;28;20471;-56
2023/10/01 02:40:57;;;;;;;0.40;0.30;;;;;;;17.68;59.12;95582.44;5111425;28;20521;-56
2023/10/01 02:43:33;;;;;;;1.57;0.60;;;;;;;17.73;58.40;95560.88;5111739;28;20506;-56
2023/10/01 02:46:07;;;;;;;0.50;0.37;;;;;;;17.95;57.67;95589.50;5111412;28;20459;-56
2023/10/01 02:48:36;;;;;;;0.63;0.60;;;;;;;17.70;58.79;95589.09;5111418;28;20443;-56
2023/10/01 02:51:15;;;;;;;0.53;0.47;;;;;;;17.30;59.97;95587.38;5112014;28;20507;-56
2023/10/01 02:54:01;;;;;;;0.50;0.40;;;;;;;16.98;60.91;95592.94;5112495;28;20538;-55
2023/10/01 02:56:32;;;;;;;0.50;0.40;;;;;;;17.07;60.13;95573.19;5111790;28;20431;-56
2023/10/01 02:59:07;;;;;;;0.47;0.33;;;;;;;17.19;60.33;95591.38;5111841;28;20440;-56
2023/10/01 03:01:38;;;;;;;2.33;0.47;;;;;;;17.15;60.27;95582.38;5111615;28;20439;-56
2023/10/01 03:04:10;;;;;;;0.40;0.40;;;;;;;17.30;59.47;95590.06;5111501;28;20486;-56
2023/10/01 03:06:47;;;;;;;0.50;0.30;;;;;;;17.14;60.48;95588.81;5110720;28;20436;-56
2023/10/01 03:09:22;;;;;;;0.40;0.30;;;;;;;17.01;60.27;95589.66;5085064;28;20443;-56
2023/10/01 03:11:53;;;;;;;0.50;0.30;;;;;;;16.98;59.94;95560.81;5111817;28;20546;-56
2023/10/01 03:14:26;;;;;;;0.60;0.50;;;;;;;17.01;60.86;95595.00;5112205;28;20458;-56
2023/10/01 03:16:54;;;;;;;0.53;0.40;;;;;;;17.16;61.11;95589.31;5112750;28;20440;-56
2023/10/01 03:19:29;;;;;;;2.43;0.40;;;;;;;17.24;61.86;95588.59;5115889;28;20441;-56
2023/10/01 03:24:46;;;;;;;0.50;0.40;;;;;;;17.23;61.46;95592.34;5115445;28;20525;-55
2023/10/01 03:27:25;;;;;;;0.67;0.50;;;;;;;17.29;61.55;95585.00;5115893;28;20440;-56
2023/10/01 03:30:09;;;;;;;1.63;0.60;;;;;;;17.00;62.04;95561.31;5115198;28;20492;-55
2023/10/01 03:32:40;;;;;;;0.60;0.60;;;;;;;17.36;61.19;95569.28;5115136;27;20443;-55
2023/10/01 03:35:09;;;;;;;0.40;0.33;;;;;;;17.41;60.99;95579.88;5114819;28;20528;-55
2023/10/01 03:37:43;;;;;;;0.50;0.30;;;;;;;17.43;61.55;95591.88;5115634;28;20536;-57
2023/10/01 03:40:18;;;;;;;0.40;0.30;;;;;;;17.43;60.87;95591.09;5115503;28;20435;-57
2023/10/01 03:42:51;;;;;;;0.40;0.30;;;;;;;17.40;60.46;95584.47;5115291;28;20471;-57
2023/10/01 03:48:19;;;;;;;4.93;0.67;;;;;;;17.05;62.57;95591.41;5111417;28;20905;-57
2023/10/01 03:50:48;;;;;;;0.50;0.30;;;;;;;16.75;63.36;95553.84;5114899;28;20862;-57
2023/10/01 03:53:18;;;;;;;1.03;1.03;;;;;;;16.77;64.53;95595.28;5115240;28;20439;-57
2023/10/01 03:55:54;;;;;;;8.63;0.40;;;;;;;16.71;64.41;95590.34;5114402;28;20436;-57
2023/10/01 03:58:29;;;;;;;0.40;0.30;;;;;;;16.27;65.30;95545.47;5114883;28;20503;-56
2023/10/01 04:01:15;;;;;;;0.70;0.40;;;;;;;16.20;67.66;95602.06;5114256;28;20435;-57
2023/10/01 04:03:46;;;;;;;0.50;0.40;;;;;;;16.22;67.41;95599.88;5114462;28;20509;-56
2023/10/01 04:06:15;;;;;;;1.13;0.70;;;;;;;15.91;67.67;95545.41;5114685;27;20500;-57
2023/10/01 04:08:44;;;;;;;0.50;0.40;;;;;;;16.06;68.12;95601.25;5114280;28;20440;-57
2023/10/01 04:11:15;;;;;;;0.40;0.27;;;;;;;16.06;67.88;95616.50;5114997;28;20435;-56
2023/10/01 04:14:07;;;;;;;2.10;0.50;;;;;;;15.86;68.15;95605.09;5114314;27;20912;-56
2023/10/01 04:16:36;;;;;;;2.20;0.53;;;;;;;15.86;67.92;95596.28;5114218;28;20871;-55
2023/10/01 04:19:10;;;;;;;0.97;0.97;;;;;;;15.97;67.75;95619.06;5088997;28;20428;-57
2023/10/01 04:21:43;;;;;;;0.53;0.53;;;;;;;15.51;68.19;95556.84;5113972;28;20521;-56
2023/10/01 04:24:13;;;;;;;0.40;0.30;;;;;;;15.80;68.91;95608.16;5114782;28;20959;-57
2023/10/01 04:26:42;;;;;;;2.60;0.40;;;;;;;15.80;67.94;95602.81;5114359;28;20559;-56
2023/10/01 04:29:11;;;;;;;0.50;0.30;;;;;;;16.05;66.16;95615.72;5113779;28;20492;-57
2023/10/01 04:31:48;;;;;;;0.60;0.40;;;;;;;16.10;66.04;95610.28;5113886;28;20443;-57
2023/10/01 04:34:17;;;;;;;0.50;0.40;;;;;;;16.12;66.79;95620.66;5113999;28;20479;-56
2023/10/01 04:36:50;;;;;;;0.53;0.40;;;;;;;16.11;65.85;95554.91;5113544;28;20465;-56
2023/10/01 04:39:20;;;;;;;0.80;0.47;;;;;;;16.61;65.31;95618.13;5114005;28;20448;-56
2023/10/01 04:41:58;;;;;;;1.20;0.57;;;;;;;16.69;65.62;95625.44;5114292;28;20467;-56
2023/10/01 04:44:30;;;;;;;0.60;0.60;;;;;;;16.59;65.47;95614.16;5112964;28;20992;-55
2023/10/01 04:47:30;;;;;;;0.83;0.83;;;;;;;16.81;64.53;95625.72;5114106;28;20467;-57
2023/10/01 04:49:51;;;;;;;0.40;0.20;;;;;;;16.89;64.34;95625.00;5112393;28;20451;-57
2023/10/01 04:52:24;;;;;;;0.53;0.53;;;;;;;16.72;65.33;95632.09;5113536;28;20442;-57
2023/10/01 04:54:52;;;;;;;0.77;0.53;;;;;;;16.71;65.90;95625.13;5113606;28;20440;-56
2023/10/01 04:57:22;;;;;;;1.17;0.30;;;;;;;16.80;65.48;95621.44;5113042;28;20435;-57
2023/10/01 04:59:57;;;;;;;0.40;0.30;;;;;;;16.84;64.31;95610.94;5113987;28;20466;-57
2023/10/01 05:02:31;;;;;;;2.77;0.97;;;;;;;16.85;63.64;95591.88;5113626;27;20821;-57
2023/10/01 05:05:09;;;;;;;1.10;1.10;;;;;;;16.98;64.26;95606.31;5113695;28;20478;-57
2023/10/01 05:07:40;;;;;;;1.03;1.00;;;;;;;16.67;64.06;95563.38;5113080;28;20440;-57
2023/10/01 05:10:09;;;;;;;0.50;0.47;;;;;;;17.23;64.07;95624.50;5113235;28;20446;-55
2023/10/01 05:12:43;;;;;;;0.50;0.40;;;;;;;17.44;64.73;95622.94;5088251;28;20509;-56
2023/10/01 05:15:21;;;;;;;0.50;0.40;;;;;;;17.60;63.93;95620.72;5113334;28;20886;-55
2023/10/01 05:17:53;;;;;;;0.60;0.40;;;;;;;17.60;64.23;95618.81;5113144;28;20436;-56
2023/10/01 05:20:22;;;;;;;1.33;0.47;;;;;;;17.58;63.32;95621.00;5112592;28;20470;-56
2023/10/01 05:22:54;;;;;;;1.13;1.13;;;;;;;17.14;64.06;95611.06;5113256;28;20443;-56
2023/10/01 05:25:24;;;;;;;0.50;0.30;;;;;;;17.25;62.97;95621.53;5112630;28;20463;-57
2023/10/01 05:27:55;;;;;;;0.60;0.40;;;;;;;17.25;61.86;95638.41;5112816;28;20771;-57
2023/10/01 05:30:38;;;;;;;0.77;0.50;;;;;;;17.23;65.47;95629.09;5086363;28;20488;-56
2023/10/01 05:33:11;;;;;;;3.90;0.50;;;;;;;17.45;65.27;95645.97;5111593;28;20431;-56
2023/10/01 05:35:44;;;;;;;0.60;0.57;;;;;;;17.17;67.29;95641.78;5112972;28;20470;-56
2023/10/01 05:38:16;;;;;;;0.77;0.63;;;;;;;17.11;67.96;95640.31;5112879;28;20431;-56
2023/10/01 05:40:45;;;;;;;0.60;0.40;;;;;;;17.29;67.85;95639.38;5112474;28;20443;-56
2023/10/01 05:43:14;;;;;;;0.67;0.60;;;;;;;17.66;65.01;95640.91;5099200;28;20968;-57
2023/10/01 05:45:47;;;;;;;0.53;0.30;;;;;;;17.26;63.17;95574.88;5113088;28;20494;-57
2023/10/01 05:48:19;;;;;;;0.70;0.50;;;;;;;17.91;63.83;95639.50;5112850;28;20923;-57
2023/10/01 05:50:49;;;;;;;0.50;0.30;;;;;;;18.11;62.68;95629.06;5112546;28;20496;-57
2023/10/01 05:53:18;;;;;;;2.10;0.30;;;;;;;18.40;61.53;95641.94;5112189;28;20792;-58
2023/10/01 05:55:47;;;;;;;0.40;0.30;;;;;;;18.00;59.65;95597.44;5111977;28;20439;-58
2023/10/01 05:58:21;;;;;;;0.40;0.30;;;;;;;18.68;59.28;95623.75;5112466;28;20444;-59
2023/10/01 06:01:05;;;;;;;0.40;0.30;;;;;;;19.21;57.28;95628.88;5112847;28;20431;-58
2023/10/01 06:03:40;;;;;;;0.53;0.50;;;;;;;19.71;56.65;95632.66;5112663;28;20785;-57
2023/10/01 06:06:13;;;;;;;0.50;0.47;;;;;;;19.81;56.36;95632.31;5112596;28;20447;-59
2023/10/01 06:08:46;;;;;;;5.03;0.40;;;;;;;20.47;53.76;95638.97;5112182;28;20435;-58
2023/10/01 06:11:16;;;;;;;0.70;0.60;;;;;;;20.42;54.04;95639.13;5112420;28;20432;-58
2023/10/01 06:13:53;;;;;;;0.70;0.67;;;;;;;20.78;52.87;95641.34;5111738;28;20440;-59
2023/10/01 06:16:25;;;;;;;0.50;0.50;;;;;;;20.59;53.12;95601.34;5113115;28;20555;-58
2023/10/01 06:18:58;;;;;;;0.90;0.70;;;;;;;21.03;52.75;95635.00;5112480;28;20516;-57
2023/10/01 06:21:31;;;;;;;0.80;0.80;;;;;;;21.47;51.97;95631.72;5111875;28;20519;-56
2023/10/01 06:24:04;;;;;;;0.73;0.63;;;;;;;21.77;50.57;95637.78;5111606;28;20533;-56
2023/10/01 06:26:36;;;;;;;0.90;0.73;;;;;;;22.09;50.63;95634.31;5111051;28;20537;-56
2023/10/01 06:29:07;;;;;;;0.50;0.43;;;;;;;22.14;49.08;95588.19;5111828;28;20835;-56
2023/10/01 06:31:52;;;;;;;1.90;1.03;;;;;;;22.78;48.92;95647.00;5111407;28;20530;-56
2023/10/01 06:34:24;;;;;;;0.80;0.40;;;;;;;22.99;48.57;95638.78;5104669;28;20467;-55
2023/10/01 06:36:58;;;;;;;0.77;0.53;;;;;;;22.88;47.81;95633.03;5086721;28;20496;-55
2023/10/01 06:39:30;;;;;;;1.50;1.07;;;;;;;22.88;47.85;95633.03;5112319;28;20431;-56
2023/10/01 06:44:43;;;;;;;0.80;0.67;;;;;;;23.32;46.65;95642.09;5111292;27;20491;-54
2023/10/01 06:47:15;;;;;;;1.17;1.17;;;;;;;22.88;47.99;95643.06;5098549;28;20523;-55
2023/10/01 06:50:07;;;;;;;1.33;1.33;;;;;;;22.27;49.10;95583.59;5108885;28;20439;-54
2023/10/01 06:52:41;;;;;;;1.53;1.43;;;;;;;23.14;48.48;95643.50;5113123;28;20809;-55
2023/10/01 06:55:25;;;;;;;1.63;1.53;;;;;;;23.16;47.66;95644.72;5113537;28;20442;-55
2023/10/01 06:57:56;;;;;;;5.10;1.13;;;;;;;23.30;48.20;95644.38;5113861;28;20436;-54
2023/10/01 07:00:24;;;;;;;3.27;1.63;;;;;;;23.22;48.63;95639.88;5100192;28;20443;-55
2023/10/01 07:02:53;;;;;;;3.43;1.47;;;;;;;23.81;47.90;95638.13;5113866;28;20530;-55
2023/10/01 07:05:23;;;;;;;1.33;0.73;;;;;;;24.11;46.57;95640.50;5114449;28;20463;-56
2023/10/01 07:07:52;;;;;;;0.60;0.40;;;;;;;24.66;45.57;95647.69;5116229;28;20460;-56
2023/10/01 07:10:21;;;;;;;1.53;0.50;;;;;;;24.26;45.26;95648.63;5115196;28;20817;-55
2023/10/01 07:13:04;;;;;;;0.50;0.50;;;;;;;24.79;42.24;95644.59;5115458;28;20427;-56
2023/10/01 07:15:39;;;;;;;0.50;0.30;;;;;;;25.57;42.56;95641.69;5115777;28;20435;-56
2023/10/01 07:18:15;;;;;;;0.43;0.43;;;;;;;25.24;41.95;95543.69;5115221;28;20434;-56
2023/10/01 07:20:49;;;;;;;2.23;0.40;;;;;;;26.12;41.61;95642.41;5115845;28;20951;-56
2023/10/01 07:23:21;;;;;;;0.90;0.50;;;;;;;25.86;41.40;95638.41;5115283;28;20435;-56
2023/10/01 07:26:00;;;;;;;0.90;0.90;;;;;;;25.88;41.11;95641.53;5115593;28;20479;-55
2023/10/01 07:28:30;;;;;;;1.10;1.00;;;;;;;25.89;41.32;95631.47;5115837;28;20442;-55
2023/10/01 07:31:01;;;;;;;1.23;0.70;;;;;;;26.11;41.06;95628.00;5115689;28;20457;-55
2023/10/01 07:33:31;;;;;;;1.60;1.27;;;;;;;26.71;40.33;95625.56;5115350;28;20427;-54
2023/10/01 07:36:01;;;;;;;0.50;0.40;;;;;;;27.31;39.83;95610.16;5115384;28;20924;-53
2023/10/01 07:38:32;;;;;;;0.50;0.40;;;;;;;27.50;38.82;95599.19;5115731;28;20431;-54
2023/10/01 07:41:07;;;;;;;0.40;0.40;;;;;;;27.86;38.83;95608.53;5115049;28;20935;-55
2023/10/01 07:43:37;;;;;;;0.50;0.40;;;;;;;28.00;38.82;95612.22;5115434;28;20529;-54
2023/10/01 07:46:07;;;;;;;0.50;0.47;;;;;;;28.31;37.63;95595.41;5114353;28;21067;-55
2023/10/01 07:48:46;;;;;;;1.23;0.40;;;;;;;28.40;38.60;95629.75;5114700;28;20436;-55
2023/10/01 07:51:27;;;;;;;0.50;0.37;;;;;;;28.66;38.28;95624.19;5115022;28;20431;-56
2023/10/01 07:53:59;;;;;;;1.20;1.00;;;;;;;28.14;37.30;95565.25;5114703;28;20951;-55
2023/10/01 07:56:28;;;;;;;0.60;0.60;;;;;;;28.08;37.19;95605.69;5105641;28;20442;-54
2023/10/01 07:59:16;;;;;;;0.70;0.67;;;;;;;28.32;37.80;95550.63;5110569;28;20470;-54
2023/10/01 08:01:59;;;;;;;13.77;2.50;;;;;;;28.89;37.69;95605.66;5114800;28;20434;-54
2023/10/01 08:07:17;;;;;;;0.80;0.80;;;;;;;28.51;36.66;95576.91;5113973;28;20492;-54
2023/10/01 08:09:51;;;;;;;0.40;0.30;;;;;;;29.88;35.66;95609.72;5114531;28;20439;-54
2023/10/01 08:12:28;;;;;;;0.60;0.50;;;;;;;29.71;35.49;95580.38;5114430;28;20862;-55
2023/10/01 08:17:47;;;;;;;0.73;0.60;;;;;;;29.51;35.86;95612.69;5093028;28;20446;-55
2023/10/01 08:20:17;;;;;;;0.43;0.40;;;;;;;29.50;35.57;95607.59;5114412;28;20431;-55
2023/10/01 08:25:29;;;;;;;0.60;0.60;;;;;;;30.59;34.82;95607.94;5114656;27;20470;-55
2023/10/01 08:28:26;;;;;;;1.23;0.60;;;;;;;30.71;35.14;95607.53;5113924;28;20427;-55
2023/10/01 08:31:42;;;;;;;0.53;0.53;;;;;;;31.54;33.54;95593.38;5114306;28;20530;-55
2023/10/01 08:33:53;;;;;;;0.53;0.40;;;;;;;32.25;32.96;95598.56;5113864;28;20897;-56
2023/10/01 08:36:25;;;;;;;0.43;0.40;;;;;;;32.86;32.67;95588.72;5114071;28;20451;-55
2023/10/01 08:41:50;;;;;;;0.73;0.60;;;;;;;32.46;31.75;95584.69;5086885;28;20825;-56
2023/10/01 08:44:30;;;;;;;1.57;0.83;;;;;;;32.05;33.10;95583.78;5113858;28;20923;-56
2023/10/01 08:47:21;;;;;;;1.37;0.70;;;;;;;32.69;31.08;95584.16;5114013;28;20477;-55
2023/10/01 08:49:52;;;;;;;0.53;0.53;;;;;;;33.15;31.24;95574.31;5113976;27;20439;-56
2023/10/01 08:52:25;;;;;;;0.50;0.40;;;;;;;33.74;30.24;95576.81;5113504;28;20439;-55
2023/10/01 08:54:56;;;;;;;0.60;0.60;;;;;;;34.47;29.36;95574.25;5113892;28;20431;-55
2023/10/01 08:57:37;;;;;;;0.70;0.70;;;;;;;34.24;28.78;95539.22;5099955;28;20946;-55
2023/10/01 09:00:19;;;;;;;0.50;0.37;;;;;;;35.59;27.93;95568.00;5113963;28;20438;-55
2023/10/01 09:02:52;;;;;;;3.00;0.43;;;;;;;35.14;27.61;95562.16;5087983;28;20434;-55
2023/10/01 09:05:27;;;;;;;1.00;0.70;;;;;;;35.03;27.95;95553.25;5113253;28;20927;-55
2023/10/01 09:10:50;;;;;;;0.40;0.30;;;;;;;35.58;26.73;95552.66;5111288;28;20453;-55
2023/10/01 09:13:22;;;;;;;0.60;0.60;;;;;;;35.17;27.84;95555.03;5113262;28;20921;-55
2023/10/01 09:15:55;;;;;;;0.67;0.67;;;;;;;35.19;26.96;95527.81;5112237;28;20431;-55
2023/10/01 09:18:25;;;;;;;0.50;0.50;;;;;;;33.39;27.14;95520.28;5112593;28;20262;-55
2023/10/01 09:23:56;;;;;;;0.70;0.53;;;;;;;32.89;27.97;95539.22;5108158;28;20295;-55
2023/10/01 09:26:42;;;;;;;0.70;0.33;;;;;;;31.64;28.75;95554.19;5112984;28;20535;-59
2023/10/01 09:29:22;;;;;;;0.40;0.30;;;;;;;31.51;27.90;95536.63;5113341;28;20526;-55
2023/10/01 09:31:56;;;;;;;1.73;0.60;;;;;;;31.41;28.92;95534.69;5112894;28;20434;-55
2023/10/01 09:34:33;;;;;;;0.40;0.33;;;;;;;32.06;27.49;95519.50;5112718;28;20481;-55
2023/10/01 09:37:06;;;;;;;0.60;0.40;;;;;;;32.43;26.65;95534.16;5112931;28;20441;-56
2023/10/01 09:39:41;;;;;;;0.40;0.40;;;;;;;32.42;26.99;95457.72;5112601;28;20431;-56
2023/10/01 09:45:09;;;;;;;0.60;0.60;;;;;;;30.88;28.26;95501.97;5112808;28;20963;-56
2023/10/01 09:47:40;;;;;;;0.53;0.40;;;;;;;30.12;28.73;95537.16;5112175;28;21047;-56
2023/10/01 09:50:15;;;;;;;3.67;0.70;;;;;;;30.96;29.24;95525.44;5112495;28;20915;-56
2023/10/01 09:52:49;;;;;;;6.00;0.60;;;;;;;32.35;28.91;95513.44;5112146;28;20434;-56
2023/10/01 09:55:26;;;;;;;0.77;0.50;;;;;;;32.34;28.07;95525.59;5113121;28;20491;-55
2023/10/01 09:57:57;;;;;;;0.70;0.70;;;;;;;31.75;27.99;95515.78;5112878;28;20817;-55
2023/10/01 10:03:23;;;;;;;0.50;0.50;;;;;;;32.37;28.80;95510.28;5150576;27;20549;-56
2023/10/01 10:05:53;;;;;;;0.80;0.63;;;;;;;31.82;28.77;95513.78;5150631;27;20521;-57
2023/10/01 10:08:26;;;;;;;1.10;1.10;;;;;;;31.79;29.26;95503.59;5150539;27;20437;-57
2023/10/01 10:10:57;;;;;;;0.30;0.30;;;;;;;31.76;28.92;95518.09;5125044;27;20437;-56
2023/10/01 10:13:45;;;;;;;0.60;0.53;;;;;;;30.56;29.03;95517.66;5149967;27;20885;-57
2023/10/01 10:16:35;;;;;;;0.60;0.60;;;;;;;30.56;29.82;95509.47;5149984;27;20874;-58
2023/10/01 10:19:20;;;;;;;0.40;0.30;;;;;;;30.22;30.66;95519.97;5123265;27;20453;-58
2023/10/01 10:22:16;;;;;;;0.40;0.30;;;;;;;30.10;29.71;95515.69;5150161;27;20468;-58
2023/10/01 10:24:54;;;;;;;0.50;0.50;;;;;;;30.08;30.82;95512.53;5150257;27;20485;-59
2023/10/01 10:27:47;;;;;;;0.57;0.57;;;;;;;29.99;31.33;95512.16;5150279;27;20441;-59
2023/10/01 10:30:16;;;;;;;0.40;0.30;;;;;;;29.93;31.48;95516.41;5145639;27;20471;-60
2023/10/01 10:33:40;;;;;;;0.40;0.30;;;;;;;29.68;31.41;95514.81;5149686;27;20494;-59
2023/10/01 10:36:53;;;;;;;0.40;0.30;;;;;;;28.94;32.33;95507.06;5149366;27;20437;-59
2023/10/01 10:40:22;;;;;;;0.50;0.43;;;;;;;28.61;33.36;95515.44;5135872;27;20837;-59
2023/10/01 10:43:22;;;;;;;0.40;0.30;;;;;;;28.28;34.20;95513.59;5149695;27;21078;-60
2023/10/01 10:46:08;;;;;;;0.40;0.30;;;;;;;28.58;33.94;95507.97;5149101;27;20962;-57
2023/10/01 10:49:03;;;;;;;0.50;0.30;;;;;;;28.63;32.84;95504.91;5149553;27;20430;-58
2023/10/01 10:51:50;;;;;;;0.60;0.40;;;;;;;28.32;34.02;95514.41;5124514;27;20445;-57
2023/10/01 10:54:31;;;;;;;0.40;0.30;;;;;;;28.63;34.17;95508.44;5149812;27;20551;-56
2023/10/01 10:56:59;;;;;;;0.30;0.30;;;;;;;28.97;32.81;95457.16;5149237;27;20518;-58
2023/10/01 10:59:31;;;;;;;0.50;0.30;;;;;;;28.93;33.61;95506.28;5149501;27;20429;-57
2023/10/01 11:01:59;;;;;;;0.40;0.30;;;;;;;29.75;32.91;95493.75;5148324;27;20483;-59
2023/10/01 11:04:32;;;;;;;0.50;0.30;;;;;;;30.44;30.75;95498.91;5149716;27;20442;-60
2023/10/01 11:07:05;;;;;;;0.63;0.40;;;;;;;30.48;31.15;95491.50;5148644;27;20490;-60
2023/10/01 11:09:34;;;;;;;0.50;0.50;;;;;;;29.86;30.25;95497.28;5149837;27;20482;-60
2023/10/01 11:12:18;;;;;;;0.60;0.60;;;;;;;29.46;30.67;95498.34;5148794;27;20474;-59
2023/10/01 11:15:19;;;;;;;0.40;0.40;;;;;;;29.13;29.55;95503.25;5134733;27;20430;-59
2023/10/01 11:17:47;;;;;;;0.40;0.30;;;;;;;28.86;30.90;95495.34;5134635;27;20438;-58
2023/10/01 11:20:22;;;;;;;0.53;0.30;;;;;;;28.77;30.60;95492.16;5135546;27;20438;-57
2023/10/01 11:22:54;;;;;;;0.50;0.40;;;;;;;28.87;30.98;95494.16;5135086;27;20644;-57
2023/10/01 11:25:24;;;;;;;0.40;0.40;;;;;;;28.21;31.86;95438.00;5134999;27;20439;-56
2023/10/01 11:28:05;;;;;;;0.50;0.50;;;;;;;28.64;32.73;95496.34;5135257;27;20435;-56
2023/10/01 11:30:42;;;;;;;0.33;0.20;;;;;;;28.59;33.35;95496.66;5111680;27;20519;-56
2023/10/01 11:33:27;;;;;;;1.10;1.03;;;;;;;28.16;33.37;95497.50;5134080;27;20454;-55
2023/10/01 11:36:07;;;;;;;0.83;0.83;;;;;;;26.89;34.76;95441.69;5134282;27;20957;-56
2023/10/01 11:38:44;;;;;;;0.60;0.57;;;;;;;26.47;36.13;95507.13;5109586;27;20441;-55
2023/10/01 11:41:13;;;;;;;0.50;0.40;;;;;;;26.41;37.43;95497.72;5134443;27;20442;-55
2023/10/01 11:43:45;;;;;;;0.50;0.50;;;;;;;26.41;37.59;95506.63;5135127;27;20865;-55
2023/10/01 11:46:21;;;;;;;3.23;0.67;;;;;;;25.78;39.05;95426.81;5134520;27;20498;-56
2023/10/01 11:48:59;;;;;;;0.63;0.60;;;;;;;26.43;39.76;95490.78;5134903;27;20516;-56
2023/10/01 11:51:43;;;;;;;0.90;0.63;;;;;;;26.45;40.13;95502.06;5108909;27;20530;-56
2023/10/01 11:54:15;;;;;;;0.40;0.20;;;;;;;26.68;39.15;95504.72;5133982;27;20474;-56
2023/10/01 11:56:46;;;;;;;0.80;0.40;;;;;;;26.97;38.54;95495.81;5134848;27;20426;-56
2023/10/01 11:59:19;;;;;;;0.53;0.53;;;;;;;26.65;38.56;95505.44;5134034;27;20438;-56
2023/10/01 12:01:50;;;;;;;0.50;0.50;;;;;;;26.14;41.22;95499.63;5134098;27;20565;-56
2023/10/01 12:04:24;;;;;;;0.67;0.40;;;;;;;25.84;43.77;95496.75;5134245;27;20934;-56
2023/10/01 12:06:57;;;;;;;0.60;0.47;;;;;;;26.03;42.70;95495.13;5133856;27;20434;-56
2023/10/01 12:09:39;;;;;;;0.40;0.30;;;;;;;26.59;41.04;95476.22;5134610;27;20936;-55
2023/10/01 12:12:09;;;;;;;0.40;0.30;;;;;;;27.30;40.62;95486.88;5134041;27;20457;-55
2023/10/01 12:17:23;;;;;;;0.40;0.30;;;;;;;27.91;37.07;95474.69;5133986;27;20426;-55
2023/10/01 12:19:58;;;;;;;0.50;0.50;;;;;;;27.73;36.87;95471.81;5134319;27;20538;-56
2023/10/01 12:22:28;;;;;;;0.50;0.40;;;;;;;27.35;36.74;95459.31;5134313;27;20465;-55
2023/10/01 12:25:00;;;;;;;1.33;0.50;;;;;;;27.39;36.01;95460.19;5132921;27;20466;-55
2023/10/01 12:30:31;;;;;;;0.40;0.30;;;;;;;27.27;36.19;95465.09;5123907;27;20471;-55
2023/10/01 12:33:02;;;;;;;0.40;0.30;;;;;;;27.13;36.27;95465.69;5128946;27;20537;-56
2023/10/01 12:35:34;;;;;;;1.23;1.00;;;;;;;27.00;37.32;95461.63;5133911;27;20525;-56
2023/10/01 12:38:22;;;;;;;0.40;0.20;;;;;;;27.25;37.25;95456.50;5133652;27;20442;-56
2023/10/01 12:40:53;;;;;;;0.50;0.40;;;;;;;27.79;37.47;95453.19;5133499;27;20438;-56
2023/10/01 12:43:39;;;;;;;0.80;0.80;;;;;;;28.97;34.96;95457.16;5106502;27;20505;-57
2023/10/01 12:46:13;;;;;;;0.40;0.30;;;;;;;29.92;33.25;95432.88;5132801;27;20453;-57
2023/10/01 12:51:33;;;;;;;0.40;0.40;;;;;;;30.37;31.67;95444.22;5100296;27;20442;-59